Time;durP1;ratioP1;P1;durP2;ratioP2;P2;SDS_P1;SDS_P2;PMS_P1;PMS_P2;Temp;Humidity;BMP_temperature;BMP_pressure;BME280_temperature;BME280_humidity;BME280_pressure;Samples;Min_cycle;Max_cycle;Signal;HPM_P1;HPM_P2
2021/08/01 00:00:44;;;;;;;;;5.25;1.50;;;;;27.14;38.98;101043.22;4950401;28;45416;-72
2021/08/01 00:03:09;;;;;;;;;3.00;2.50;;;;;27.16;38.82;101053.72;4953017;28;46067;-71
2021/08/01 00:05:34;;;;;;;;;1.00;1.00;;;;;27.12;38.98;101041.75;4946677;28;45421;-71
2021/08/01 00:08:00;;;;;;;;;2.25;2.25;;;;;27.20;39.19;101054.91;4945893;28;45350;-71
2021/08/01 00:10:25;;;;;;;;;1.00;1.00;;;;;27.21;38.95;101050.41;4943360;28;45523;-72
2021/08/01 00:12:50;;;;;;;;;1.00;1.00;;;;;27.21;38.86;101047.72;4947338;28;45489;-71
2021/08/01 00:15:16;;;;;;;;;3.33;3.00;;;;;27.14;39.40;101037.88;4945796;28;45400;-72
2021/08/01 00:17:41;;;;;;;;;1.00;1.00;;;;;27.21;39.55;101045.88;4948994;28;45551;-72
2021/08/01 00:20:07;;;;;;;;;1.33;1.00;;;;;27.21;39.23;101042.38;4947759;28;45468;-72
2021/08/01 00:22:32;;;;;;;;;1.00;1.00;;;;;27.23;39.59;101051.00;4944640;28;46476;-71
2021/08/01 00:24:57;;;;;;;;;2.25;1.75;;;;;27.21;39.43;101040.53;4949803;28;45420;-71
2021/08/01 00:27:23;;;;;;;;;1.00;1.00;;;;;27.25;39.25;101049.75;4949567;28;45455;-71
2021/08/01 00:29:48;;;;;;;;;1.33;1.33;;;;;27.24;39.45;101048.13;4948166;28;45494;-72
2021/08/01 00:32:13;;;;;;;;;2.25;2.00;;;;;27.26;39.46;101056.75;4948227;28;47368;-71
2021/08/01 00:34:39;;;;;;;;;1.00;1.00;;;;;27.25;39.49;101049.75;4951044;28;45542;-72
2021/08/01 00:37:04;;;;;;;;;1.50;1.50;;;;;27.17;39.35;101040.13;4951178;28;45571;-72
2021/08/01 00:39:29;;;;;;;;;1.00;1.00;;;;;27.28;39.81;101056.53;4944682;28;45580;-71
2021/08/01 00:41:56;;;;;;;;;2.00;1.00;;;;;27.29;39.67;101063.53;4951480;28;45523;-72
2021/08/01 00:44:21;;;;;;;;;2.00;2.00;;;;;27.29;39.61;101060.84;4954061;28;45446;-71
2021/08/01 00:46:47;;;;;;;;;1.00;1.00;;;;;27.25;39.61;101054.28;4954114;28;45539;-72
2021/08/01 00:49:12;;;;;;;;;1.67;1.67;;;;;27.30;40.08;101059.81;4950755;28;45400;-71
2021/08/01 00:51:38;;;;;;;;;1.00;1.00;;;;;27.32;39.52;101056.94;4948030;28;47210;-71
2021/08/01 00:54:04;;;;;;;;;1.00;1.00;;;;;27.32;39.91;101060.44;4947820;28;45508;-72
2021/08/01 00:56:30;;;;;;;;;1.25;1.25;;;;;27.30;39.89;101051.78;4948975;28;45463;-71
2021/08/01 00:58:56;;;;;;;;;2.50;0.75;;;;;27.10;39.65;101022.47;4957339;28;45569;-71
2021/08/01 01:02:03;;;;;;;;;1.00;1.00;;;;;27.33;40.03;101062.06;4949656;28;46497;-72
2021/08/01 01:04:37;;;;;;;;;1.00;1.00;;;;;27.32;39.80;101062.28;4950356;28;45429;-71
2021/08/01 01:07:19;;;;;;;;;1.75;1.75;;;;;27.33;39.94;101066.56;4945143;28;45412;-71
2021/08/01 01:09:56;;;;;;;;;1.00;1.00;;;;;27.28;39.45;101062.69;4953785;28;45480;-72
2021/08/01 01:12:46;;;;;;;;;0.00;0.00;;;;;27.32;39.82;101068.44;4951635;28;47424;-71
2021/08/01 01:15:22;;;;;;;;;1.00;1.00;;;;;27.32;40.07;101064.94;4954547;28;45405;-72
2021/08/01 01:17:51;;;;;;;;;1.00;1.00;;;;;27.24;39.79;101058.81;4954666;28;45595;-71
2021/08/01 01:20:16;;;;;;;;;1.50;1.50;;;;;27.32;40.22;101072.97;4957316;28;45444;-72
2021/08/01 01:23:11;;;;;;;;;1.00;1.00;;;;;27.32;39.99;101064.94;4955710;28;46622;-71
2021/08/01 01:25:55;;;;;;;;;1.00;1.00;;;;;27.30;40.14;101062.47;4952465;28;47121;-72
2021/08/01 01:28:26;;;;;;;;;1.75;1.75;;;;;27.29;40.11;101058.19;4954609;28;45395;-71
2021/08/01 01:31:04;;;;;;;;;2.00;1.00;;;;;27.29;40.18;101056.34;4950227;28;45993;-72
2021/08/01 01:33:33;;;;;;;;;2.00;2.00;;;;;27.23;40.22;101051.81;4950939;28;46201;-71
2021/08/01 01:36:02;;;;;;;;;1.00;1.00;;;;;27.30;40.35;101067.81;4950822;28;45658;-71
2021/08/01 01:38:28;;;;;;;;;1.00;1.00;;;;;27.28;40.36;101062.69;4951486;28;45437;-71
2021/08/01 01:40:54;;;;;;;;;1.75;1.00;;;;;27.17;39.79;101049.97;4953957;28;45483;-71
2021/08/01 01:43:25;;;;;;;;;3.00;1.50;;;;;27.28;40.39;101061.88;4953003;28;46251;-71
2021/08/01 01:45:52;;;;;;;;;1.50;0.50;;;;;27.21;39.94;101050.41;4952124;28;45425;-72
2021/08/01 01:48:18;;;;;;;;;2.50;2.00;;;;;27.27;39.97;101058.38;4950816;28;45385;-71
2021/08/01 01:50:44;;;;;;;;;3.00;2.00;;;;;27.20;40.59;101057.59;4956554;28;45325;-71
2021/08/01 01:53:11;;;;;;;;;1.00;1.00;;;;;27.25;40.31;101059.63;4955440;28;47213;-71
2021/08/01 01:55:39;;;;;;;;;2.00;2.00;;;;;27.20;40.43;101049.56;4956191;28;45456;-71
2021/08/01 01:58:06;;;;;;;;;1.00;1.00;;;;;27.25;40.25;101068.47;4955887;28;45319;-71
2021/08/01 02:00:31;;;;;;;;;1.00;1.00;;;;;27.18;40.07;101056.97;4956079;28;45504;-72
2021/08/01 02:02:57;;;;;;;;;1.00;1.00;;;;;27.26;40.46;101064.78;4952754;28;47171;-71
2021/08/01 02:05:22;;;;;;;;;1.25;1.00;;;;;27.31;40.71;101071.31;4954397;28;45718;-71
2021/08/01 02:07:47;;;;;;;;;0.50;0.50;;;;;27.30;40.53;101067.81;4955870;28;45721;-72
2021/08/01 02:10:37;;;;;;;;;1.00;1.00;;;;;27.32;40.43;101067.63;4950689;28;45396;-72
2021/08/01 02:13:08;;;;;;;;;1.25;1.25;;;;;27.31;40.74;101068.66;4947572;28;46288;-71
2021/08/01 02:15:49;;;;;;;;;1.50;1.00;;;;;27.33;40.46;101070.06;4953543;28;45519;-70
2021/08/01 02:18:23;;;;;;;;;1.00;1.00;;;;;27.34;40.49;101069.06;4951441;28;45436;-71
2021/08/01 02:20:51;;;;;;;;;2.25;1.00;;;;;27.31;40.57;101053.44;4949969;28;45504;-71
2021/08/01 02:23:30;;;;;;;;;1.25;1.00;;;;;27.29;40.33;101053.66;4954930;28;46326;-71
2021/08/01 02:25:57;;;;;;;;;3.00;1.00;;;;;27.34;40.64;101062.88;4953837;28;45442;-71
2021/08/01 02:28:25;;;;;;;;;1.75;1.75;;;;;27.30;40.24;101057.13;4955136;28;45317;-71
2021/08/01 02:30:54;;;;;;;;;1.00;1.00;;;;;27.23;40.72;101046.47;4954499;28;45515;-71
2021/08/01 02:33:20;;;;;;;;;1.00;1.00;;;;;27.34;40.36;101061.03;4948445;28;46363;-71
2021/08/01 02:35:46;;;;;;;;;2.50;1.00;;;;;27.32;40.59;101055.09;4948084;28;45425;-72
2021/08/01 02:38:13;;;;;;;;;0.50;0.50;;;;;27.34;40.37;101066.38;4951296;28;45593;-72
2021/08/01 02:40:40;;;;;;;;;1.25;1.25;;;;;27.34;40.77;101065.56;4954013;28;45424;-72
2021/08/01 02:43:10;;;;;;;;;1.00;1.00;;;;;27.33;40.67;101062.06;4955614;28;46016;-72
2021/08/01 02:45:38;;;;;;;;;1.00;1.00;;;;;27.33;40.74;101058.56;4953341;28;45550;-71
2021/08/01 02:48:07;;;;;;;;;1.00;1.00;;;;;27.33;40.64;101054.03;4951847;28;45523;-72
2021/08/01 02:50:36;;;;;;;;;1.75;1.00;;;;;27.32;40.86;101055.09;4949409;28;45530;-72
2021/08/01 02:53:06;;;;;;;;;1.50;1.00;;;;;27.35;40.35;101053.84;4954124;28;45531;-72
2021/08/01 02:55:33;;;;;;;;;0.00;0.00;;;;;27.27;40.42;101047.69;4952661;28;45625;-72
2021/08/01 02:57:59;;;;;;;;;1.00;1.00;;;;;27.30;40.45;101049.13;4948882;28;45507;-72
2021/08/01 03:00:25;;;;;;;;;1.00;1.00;;;;;27.32;40.67;101055.09;4954029;28;45551;-71
2021/08/01 03:02:52;;;;;;;;;1.00;1.00;;;;;27.27;40.82;101050.38;4953776;28;45902;-71
2021/08/01 03:05:18;;;;;;;;;0.25;0.25;;;;;27.32;40.77;101056.94;4950407;28;45373;-72
2021/08/01 03:07:45;;;;;;;;;3.25;2.25;;;;;27.32;40.49;101056.94;4951045;28;45488;-71
2021/08/01 03:10:13;;;;;;;;;1.00;1.00;;;;;27.32;40.87;101054.28;4951319;28;45998;-72
2021/08/01 03:12:47;;;;;;;;;4.00;1.00;;;;;27.32;40.83;101052.44;4947015;28;47078;-71
2021/08/01 03:15:13;;;;;;;;;0.33;0.33;;;;;27.33;40.59;101053.22;4953271;28;45556;-72
2021/08/01 03:17:39;;;;;;;;;1.00;1.00;;;;;27.33;40.78;101043.34;4953209;28;45437;-71
2021/08/01 03:20:06;;;;;;;;;1.00;1.00;;;;;27.34;40.87;101052.19;4952378;28;45525;-71
2021/08/01 03:22:31;;;;;;;;;2.00;2.00;;;;;27.34;40.83;101046.84;4950821;28;46338;-71
2021/08/01 03:24:57;;;;;;;;;1.00;1.00;;;;;27.36;40.88;101045.63;4953297;28;45549;-71
2021/08/01 03:27:22;;;;;;;;;1.50;1.50;;;;;27.35;40.88;101051.97;4949718;28;45433;-71
2021/08/01 03:29:48;;;;;;;;;2.00;1.00;;;;;27.28;40.91;101038.66;4948249;28;45240;-71
2021/08/01 03:32:13;;;;;;;;;0.00;0.00;;;;;27.36;41.05;101042.94;4951827;28;46753;-71
2021/08/01 03:34:38;;;;;;;;;1.00;1.00;;;;;27.37;40.96;101057.13;4951666;28;45287;-71
2021/08/01 03:37:04;;;;;;;;;1.00;1.00;;;;;27.37;40.64;101051.78;4949671;28;45378;-71
2021/08/01 03:39:33;;;;;;;;;2.00;2.00;;;;;27.35;41.18;101051.97;4951006;28;45421;-71
2021/08/01 03:42:00;;;;;;;;;1.00;1.00;;;;;27.35;41.00;101057.31;4949148;28;47223;-71
2021/08/01 03:44:25;;;;;;;;;0.00;0.00;;;;;27.36;40.74;101053.63;4953481;28;45680;-71
2021/08/01 03:46:51;;;;;;;;;1.00;1.00;;;;;27.28;41.46;101044.00;4952941;28;45640;-71
2021/08/01 03:49:16;;;;;;;;;1.00;1.00;;;;;27.37;40.81;101051.78;4951456;28;45432;-71
2021/08/01 03:51:41;;;;;;;;;2.25;1.00;;;;;27.38;40.75;101054.22;4954444;28;45686;-71
2021/08/01 03:54:06;;;;;;;;;1.00;1.00;;;;;27.37;41.36;101047.28;4955019;28;45564;-72
2021/08/01 03:56:32;;;;;;;;;0.75;0.75;;;;;27.29;41.32;101028.81;4956579;28;45318;-71
2021/08/01 03:58:57;;;;;;;;;2.00;1.50;;;;;27.35;41.01;101043.97;4952317;28;45319;-71
2021/08/01 04:01:23;;;;;;;;;1.00;1.00;;;;;27.32;40.56;101043.59;4964615;28;51880;-71
2021/08/01 04:03:48;;;;;;;;;1.00;1.00;;;;;27.09;40.59;101002.16;4953512;28;45921;-71
2021/08/01 04:06:13;;;;;;;;;2.75;1.00;;;;;27.36;40.29;101042.13;4953629;28;45471;-71
2021/08/01 04:08:39;;;;;;;;;0.67;0.67;;;;;27.37;39.93;101043.78;4956109;28;45360;-72
2021/08/01 04:11:05;;;;;;;;;2.00;1.00;;;;;27.37;40.41;101041.91;4952787;28;50216;-72
2021/08/01 04:13:31;;;;;;;;;2.00;2.00;;;;;27.36;40.17;101042.94;4952013;28;45388;-71
2021/08/01 04:15:56;;;;;;;;;1.67;0.67;;;;;27.16;40.47;101021.66;4952356;28;45408;-71
2021/08/01 04:18:21;;;;;;;;;1.25;1.25;;;;;27.25;40.19;101025.72;4951736;28;45270;-71
2021/08/01 04:20:47;;;;;;;;;1.00;1.00;;;;;27.29;40.35;101037.63;4956594;28;46056;-71
2021/08/01 04:23:12;;;;;;;;;1.00;1.00;;;;;27.36;39.96;101042.13;4952148;28;46502;-71
2021/08/01 04:25:37;;;;;;;;;1.75;1.00;;;;;27.30;39.65;101038.44;4952239;28;45688;-71
2021/08/01 04:28:03;;;;;;;;;1.00;1.00;;;;;27.27;39.79;101034.34;4951993;28;45381;-72
2021/08/01 04:30:28;;;;;;;;;4.00;1.00;;;;;27.33;39.58;101042.53;4952076;28;46073;-72
2021/08/01 04:32:54;;;;;;;;;2.00;2.00;;;;;27.33;39.56;101047.88;4956322;28;45301;-72
2021/08/01 04:35:19;;;;;;;;;1.50;0.25;;;;;27.34;39.35;101052.19;4944853;28;45504;-71
2021/08/01 04:37:44;;;;;;;;;0.00;0.00;;;;;27.31;39.51;101050.78;4944999;28;45426;-71
2021/08/01 04:40:10;;;;;;;;;0.50;0.50;;;;;27.28;39.69;101044.00;4947461;28;45377;-71
2021/08/01 04:42:35;;;;;;;;;1.25;1.25;;;;;27.31;39.80;101048.09;4955505;28;45495;-71
2021/08/01 04:45:01;;;;;;;;;0.67;0.67;;;;;27.27;39.58;101046.91;4956222;28;45352;-72
2021/08/01 04:47:26;;;;;;;;;0.00;0.00;;;;;27.20;39.46;101033.53;4944030;28;45615;-71
2021/08/01 04:49:52;;;;;;;;;1.00;1.00;;;;;27.26;40.09;101051.41;4952616;28;45953;-71
2021/08/01 04:52:19;;;;;;;;;1.50;1.00;;;;;27.29;39.94;101053.66;4952398;28;45420;-71
2021/08/01 04:54:45;;;;;;;;;1.00;1.00;;;;;27.29;40.03;101056.34;4943886;28;45291;-72
2021/08/01 04:57:11;;;;;;;;;3.00;1.00;;;;;27.30;39.49;101057.13;4939937;28;45317;-71
2021/08/01 04:59:36;;;;;;;;;1.00;1.00;;;;;27.28;39.52;101054.69;4942182;28;46138;-71
2021/08/01 05:02:03;;;;;;;;;0.50;0.50;;;;;27.28;39.74;101054.69;4953899;28;45533;-71
2021/08/01 05:04:29;;;;;;;;;1.00;1.00;;;;;27.21;40.02;101051.22;4950937;28;45625;-71
2021/08/01 05:06:54;;;;;;;;;3.25;1.00;;;;;27.27;39.60;101061.03;4944577;28;45506;-71
2021/08/01 05:09:20;;;;;;;;;1.00;1.00;;;;;27.24;39.64;101055.31;4940456;28;46056;-71
2021/08/01 05:11:45;;;;;;;;;0.75;0.75;;;;;27.18;39.85;101043.63;4940822;28;45511;-71
2021/08/01 05:14:10;;;;;;;;;1.75;1.00;;;;;27.21;39.79;101039.72;4944764;28;45823;-71
2021/08/01 05:16:36;;;;;;;;;1.25;1.25;;;;;27.26;39.82;101054.09;4944495;28;45483;-71
2021/08/01 05:19:01;;;;;;;;;2.00;2.00;;;;;27.26;39.78;101053.25;4944252;28;46989;-72
2021/08/01 05:21:26;;;;;;;;;1.33;1.33;;;;;27.14;39.77;101029.88;4940920;28;45323;-71
2021/08/01 05:23:52;;;;;;;;;1.00;1.00;;;;;27.25;39.83;101043.59;4955984;28;45600;-71
2021/08/01 05:26:17;;;;;;;;;0.25;0.25;;;;;27.24;39.68;101053.47;4943973;28;45468;-71
2021/08/01 05:28:43;;;;;;;;;1.00;1.00;;;;;27.24;39.92;101049.97;4951323;28;47009;-71
2021/08/01 05:31:09;;;;;;;;;1.00;0.67;;;;;27.24;39.78;101049.97;4956488;28;45241;-71
2021/08/01 05:33:34;;;;;;;;;2.00;0.50;;;;;27.23;40.04;101051.81;4945443;28;45231;-71
2021/08/01 05:36:10;;;;;;;;;1.75;1.75;;;;;27.23;39.49;101059.00;4943295;28;45228;-71
2021/08/01 05:38:37;;;;;;;;;1.25;1.25;;;;;27.16;40.00;101045.69;4943955;28;47261;-71
2021/08/01 05:41:02;;;;;;;;;0.50;0.50;;;;;27.22;39.42;101054.72;4947078;28;45350;-71
2021/08/01 05:43:28;;;;;;;;;1.00;1.00;;;;;27.21;39.62;101051.22;4947519;28;45610;-71
2021/08/01 05:45:53;;;;;;;;;1.00;1.00;;;;;27.21;39.84;101048.56;4947513;28;45547;-71
2021/08/01 05:48:19;;;;;;;;;1.00;1.00;;;;;27.11;39.27;101032.13;4943143;28;45500;-71
2021/08/01 05:50:44;;;;;;;;;2.00;1.00;;;;;27.18;39.57;101043.63;4944162;28;45393;-71
2021/08/01 05:53:09;;;;;;;;;1.00;1.00;;;;;27.16;39.33;101037.69;4947484;28;45527;-71
2021/08/01 05:55:35;;;;;;;;;1.33;0.00;;;;;27.20;39.58;101054.91;4945697;28;45548;-72
2021/08/01 05:58:00;;;;;;;;;1.00;1.00;;;;;27.22;39.29;101050.19;4947271;28;47092;-71
2021/08/01 06:00:27;;;;;;;;;1.00;1.00;;;;;27.22;39.27;101058.19;4943697;28;45438;-71
2021/08/01 06:02:53;;;;;;;;;0.75;0.75;;;;;27.20;39.19;101057.59;4958654;28;45290;-72
2021/08/01 06:05:18;;;;;;;;;1.75;1.75;;;;;27.21;39.21;101061.91;4946622;28;45413;-72
2021/08/01 06:07:44;;;;;;;;;1.00;1.00;;;;;27.15;39.87;101050.22;4953748;28;45451;-71
2021/08/01 06:10:09;;;;;;;;;1.25;0.25;;;;;27.06;39.65;101038.91;4955642;28;45417;-71
2021/08/01 06:12:35;;;;;;;;;1.00;1.00;;;;;27.22;39.62;101062.72;4944871;28;45473;-71
2021/08/01 06:15:02;;;;;;;;;2.00;2.00;;;;;27.20;39.78;101062.94;4942706;28;45378;-71
2021/08/01 06:17:27;;;;;;;;;0.33;0.33;;;;;27.17;39.30;101058.00;4945651;28;46343;-71
2021/08/01 06:19:54;;;;;;;;;2.00;1.00;;;;;27.04;39.63;101037.47;4946723;28;45523;-71
2021/08/01 06:22:20;;;;;;;;;1.00;1.00;;;;;27.20;39.53;101060.25;4946936;28;48036;-71
2021/08/01 06:24:46;;;;;;;;;0.33;0.33;;;;;27.04;39.03;101034.78;4945746;28;45574;-72
2021/08/01 06:27:11;;;;;;;;;0.75;0.75;;;;;27.14;39.49;101050.44;4940756;28;46179;-71
2021/08/01 06:29:36;;;;;;;;;0.00;0.00;;;;;27.20;39.46;101059.44;4945865;28;45353;-71
2021/08/01 06:32:02;;;;;;;;;1.25;1.25;;;;;27.19;39.82;101058.63;4957678;28;45527;-71
2021/08/01 06:34:28;;;;;;;;;0.50;0.50;;;;;27.13;39.37;101062.97;4956924;28;45469;-71
2021/08/01 06:36:53;;;;;;;;;0.25;0.25;;;;;27.17;39.32;101060.66;4957121;28;45454;-71
2021/08/01 06:39:19;;;;;;;;;0.50;0.50;;;;;27.15;39.58;101065.41;4956928;28;45470;-71
2021/08/01 06:41:44;;;;;;;;;0.67;0.67;;;;;27.13;39.38;101062.97;4957276;28;45380;-71
2021/08/01 06:44:09;;;;;;;;;2.00;1.00;;;;;27.18;39.78;101065.00;4957101;28;45574;-71
2021/08/01 06:46:35;;;;;;;;;1.00;1.00;;;;;27.17;39.39;101069.50;4956405;28;46245;-71
2021/08/01 06:49:00;;;;;;;;;1.33;1.00;;;;;27.16;39.80;101067.88;4956937;28;45998;-71
2021/08/01 06:51:25;;;;;;;;;0.67;0.67;;;;;27.14;39.74;101075.25;4957432;28;45481;-71
2021/08/01 06:53:51;;;;;;;;;0.75;0.75;;;;;27.05;39.89;101055.97;4957546;28;45378;-71
2021/08/01 06:56:16;;;;;;;;;1.33;0.67;;;;;27.16;39.54;101078.56;4957262;28;45404;-71
2021/08/01 06:58:41;;;;;;;;;2.00;2.00;;;;;27.07;39.44;101063.75;4956706;28;45571;-72
2021/08/01 07:01:07;;;;;;;;;1.00;1.00;;;;;27.16;39.39;101081.25;4956798;28;45421;-71
2021/08/01 07:03:32;;;;;;;;;0.75;0.75;;;;;27.16;39.37;101081.25;4957018;28;45603;-71
2021/08/01 07:05:57;;;;;;;;;1.00;1.00;;;;;27.01;39.60;101062.72;4956892;28;45634;-72
2021/08/01 07:08:23;;;;;;;;;1.00;1.00;;;;;27.17;39.57;101084.69;4956934;28;48032;-71
2021/08/01 07:10:48;;;;;;;;;1.00;1.00;;;;;27.15;39.39;101084.09;4956808;28;45459;-71
2021/08/01 07:13:13;;;;;;;;;1.50;0.50;;;;;27.13;39.69;101089.66;4954169;28;45550;-71
2021/08/01 07:15:39;;;;;;;;;1.00;1.00;;;;;27.17;39.39;101090.03;4944213;28;47229;-71
2021/08/01 07:18:06;;;;;;;;;0.50;0.00;;;;;27.15;39.52;101095.59;4941768;28;45500;-71
2021/08/01 07:20:32;;;;;;;;;1.00;1.00;;;;;27.04;39.63;101074.84;4942393;28;45381;-71
2021/08/01 07:22:58;;;;;;;;;2.25;1.75;;;;;27.17;39.32;101090.88;4945505;28;45478;-71
2021/08/01 07:25:24;;;;;;;;;1.75;1.00;;;;;27.17;39.61;101090.03;4949709;28;46382;-71
2021/08/01 07:27:52;;;;;;;;;1.00;1.00;;;;;27.17;39.09;101093.53;4956942;28;45607;-71
2021/08/01 07:30:17;;;;;;;;;1.00;1.00;;;;;27.14;39.29;101091.28;4941418;28;45233;-71
2021/08/01 07:32:43;;;;;;;;;1.50;1.00;;;;;27.18;39.39;101100.53;4942791;28;45512;-71
2021/08/01 07:35:08;;;;;;;;;1.25;0.50;;;;;27.18;39.52;101100.53;4945723;28;46151;-71
2021/08/01 07:37:34;;;;;;;;;1.00;1.00;;;;;27.18;39.21;101099.72;4945384;28;45405;-71
2021/08/01 07:40:00;;;;;;;;;1.00;1.00;;;;;27.18;39.43;101105.88;4945854;28;45399;-71
2021/08/01 07:42:26;;;;;;;;;0.75;0.75;;;;;27.17;39.14;101098.88;4942185;28;45355;-72
2021/08/01 07:44:54;;;;;;;;;1.50;1.50;;;;;27.17;39.71;101101.56;4941490;28;46100;-71
2021/08/01 07:47:24;;;;;;;;;0.75;0.75;;;;;26.99;39.56;101072.81;4945088;28;45470;-71
2021/08/01 07:49:51;;;;;;;;;1.00;1.00;;;;;27.18;39.28;101110.41;4953165;28;45427;-71
2021/08/01 07:52:18;;;;;;;;;1.00;1.00;;;;;27.17;39.47;101106.06;4952977;28;45464;-71
2021/08/01 07:54:45;;;;;;;;;1.00;1.00;;;;;27.16;39.44;101109.78;4944290;28;46271;-72
2021/08/01 07:57:27;;;;;;;;;0.00;0.00;;;;;27.15;39.51;101106.28;4956499;28;45419;-71
2021/08/01 07:59:54;;;;;;;;;1.00;1.00;;;;;27.08;39.22;101102.78;4953563;28;45589;-71
2021/08/01 08:02:19;;;;;;;;;0.75;0.75;;;;;27.10;39.73;101114.06;4944816;28;45318;-71
2021/08/01 08:04:45;;;;;;;;;3.00;1.00;;;;;27.16;39.45;101115.97;4952052;28;45272;-71
2021/08/01 08:07:11;;;;;;;;;2.50;1.00;;;;;27.09;39.30;101100.94;4953633;28;45463;-71
2021/08/01 08:09:37;;;;;;;;;2.50;1.00;;;;;27.13;39.35;101112.88;4941840;28;45476;-71
2021/08/01 08:12:03;;;;;;;;;1.00;1.00;;;;;27.06;39.47;101104.84;4940631;28;45327;-71
2021/08/01 08:14:28;;;;;;;;;0.75;0.75;;;;;27.16;39.69;101120.47;4955700;28;46170;-71
2021/08/01 08:16:54;;;;;;;;;1.00;1.00;;;;;27.11;39.42;101109.56;4955652;28;45444;-71
2021/08/01 08:19:19;;;;;;;;;1.75;1.75;;;;;27.05;39.16;101093.34;4956046;28;45369;-71
2021/08/01 08:21:45;;;;;;;;;1.00;1.00;;;;;27.15;39.59;101116.16;4955158;28;45415;-71
2021/08/01 08:24:10;;;;;;;;;1.00;0.50;;;;;27.15;39.73;101108.97;4953622;28;47696;-72
2021/08/01 08:26:35;;;;;;;;;1.00;1.00;;;;;27.12;39.23;101106.66;4956548;28;45456;-72
2021/08/01 08:29:01;;;;;;;;;1.00;1.00;;;;;27.17;39.23;101108.75;4955687;28;45444;-71
2021/08/01 08:31:26;;;;;;;;;1.00;1.00;;;;;27.17;39.10;101108.75;4955679;28;45453;-71
2021/08/01 08:33:51;;;;;;;;;1.00;1.00;;;;;27.12;39.33;101096.00;4955484;28;45361;-71
2021/08/01 08:36:17;;;;;;;;;1.25;1.25;;;;;27.17;39.10;101106.91;4953633;28;45451;-71
2021/08/01 08:38:42;;;;;;;;;1.75;1.00;;;;;27.15;39.56;101110.81;4956712;28;45322;-71
2021/08/01 08:41:16;;;;;;;;;1.00;1.00;;;;;27.18;39.36;101111.22;4955398;28;45347;-72
2021/08/01 08:43:42;;;;;;;;;1.25;1.00;;;;;27.14;39.04;101106.50;4954750;28;46971;-71
2021/08/01 08:46:11;;;;;;;;;1.00;0.75;;;;;27.17;39.28;101114.91;4955086;28;45373;-71
2021/08/01 08:48:41;;;;;;;;;1.00;1.00;;;;;27.16;39.58;101107.94;4955145;28;45493;-71
2021/08/01 08:51:11;;;;;;;;;1.75;1.75;;;;;27.17;39.43;101120.25;4955921;28;45492;-72
2021/08/01 08:53:46;;;;;;;;;1.67;0.67;;;;;27.16;39.55;101109.78;4956230;28;46210;-71
2021/08/01 08:56:14;;;;;;;;;1.00;1.00;;;;;27.14;39.10;101107.31;4945313;28;45297;-71
2021/08/01 08:58:41;;;;;;;;;1.00;1.00;;;;;27.17;39.60;101104.22;4944728;28;45452;-71
2021/08/01 09:01:06;;;;;;;;;1.00;1.00;;;;;27.16;39.09;101107.13;4944770;28;45399;-71
2021/08/01 09:03:32;;;;;;;;;2.50;1.50;;;;;27.18;39.64;101115.75;4941490;28;46952;-71
2021/08/01 09:05:59;;;;;;;;;2.00;2.00;;;;;27.19;39.35;101112.06;4943690;28;45339;-72
2021/08/01 09:08:25;;;;;;;;;2.00;1.00;;;;;27.18;39.40;101116.56;4958741;28;45302;-71
2021/08/01 09:10:52;;;;;;;;;0.50;0.50;;;;;27.16;39.23;101118.63;4951346;28;46067;-71
2021/08/01 09:13:41;;;;;;;;;1.00;1.00;;;;;27.15;39.52;101118.81;4947819;28;47120;-71
2021/08/01 09:16:07;;;;;;;;;1.33;1.00;;;;;27.16;39.23;101115.97;4949024;28;45454;-71
2021/08/01 09:18:33;;;;;;;;;1.00;1.00;;;;;27.17;39.11;101120.25;4958738;28;45432;-71
2021/08/01 09:20:58;;;;;;;;;1.00;1.00;;;;;27.14;39.27;101114.53;4943318;28;45492;-71
2021/08/01 09:23:23;;;;;;;;;0.50;0.50;;;;;27.19;39.29;101128.06;4959040;28;46278;-71
2021/08/01 09:26:00;;;;;;;;;1.50;1.50;;;;;27.19;39.59;101125.41;4951283;28;45232;-71
2021/08/01 09:28:26;;;;;;;;;1.00;1.00;;;;;27.18;39.46;101127.25;4947787;28;45302;-71
2021/08/01 09:30:59;;;;;;;;;0.33;0.33;;;;;27.19;39.67;101125.41;4947633;28;45544;-71
2021/08/01 09:33:38;;;;;;;;;1.00;1.00;;;;;27.18;39.28;101121.91;4943457;28;45259;-71
2021/08/01 09:36:25;;;;;;;;;3.00;1.75;;;;;27.18;39.35;101126.41;4942994;28;45432;-71
2021/08/01 09:39:05;;;;;;;;;1.75;0.75;;;;;27.18;39.47;101115.75;4943774;28;45377;-71
2021/08/01 09:41:33;;;;;;;;;2.50;1.50;;;;;27.19;39.54;101133.41;4958849;28;45319;-71
2021/08/01 09:44:01;;;;;;;;;2.75;2.75;;;;;27.14;39.03;101122.53;4949664;28;45516;-71
2021/08/01 09:46:43;;;;;;;;;1.00;1.00;;;;;27.08;39.16;101110.81;4947111;28;45378;-71
2021/08/01 09:49:18;;;;;;;;;1.25;1.25;;;;;27.18;39.49;101129.91;4947540;28;45350;-71
2021/08/01 09:51:53;;;;;;;;;1.50;1.25;;;;;27.16;39.32;101126.63;4946143;28;45573;-71
2021/08/01 09:54:20;;;;;;;;;2.00;2.00;;;;;27.15;38.89;101132.16;4942577;28;45443;-71
2021/08/01 09:57:01;;;;;;;;;3.50;1.75;;;;;27.19;39.30;101122.72;4958785;28;45594;-71
2021/08/01 09:59:28;;;;;;;;;2.00;2.00;;;;;27.18;39.56;101129.91;4958207;28;45322;-71
2021/08/01 10:01:59;;;;;;;;;2.25;2.25;;;;;27.18;39.29;101127.25;4957508;28;45487;-71
2021/08/01 10:04:26;;;;;;;;;2.00;2.00;;;;;27.18;39.28;101132.59;4953939;28;46282;-71
2021/08/01 10:07:14;;;;;;;;;1.75;1.00;;;;;27.18;39.28;101132.59;4946575;28;45457;-71
2021/08/01 10:09:41;;;;;;;;;1.50;1.50;;;;;27.19;39.17;101133.41;4945492;28;45380;-71
2021/08/01 10:12:07;;;;;;;;;1.00;1.00;;;;;27.18;39.38;101132.59;4958106;28;45370;-72
2021/08/01 10:14:33;;;;;;;;;0.75;0.75;;;;;27.15;39.10;101118.81;4945219;28;46004;-71
2021/08/01 10:16:59;;;;;;;;;1.00;1.00;;;;;27.10;39.37;101113.25;4945407;28;45574;-71
2021/08/01 10:19:25;;;;;;;;;1.00;1.00;;;;;27.17;39.50;101119.41;4947220;28;45281;-71
2021/08/01 10:21:54;;;;;;;;;2.00;2.00;;;;;27.17;39.51;101120.25;4946302;28;45561;-72
2021/08/01 10:24:43;;;;;;;;;0.25;0.25;;;;;27.14;39.28;101114.53;4942310;28;47275;-71
2021/08/01 10:27:10;;;;;;;;;1.00;1.00;;;;;27.20;39.50;101118.19;4956305;28;45614;-72
2021/08/01 10:29:54;;;;;;;;;2.00;2.00;;;;;27.19;39.30;101114.72;4945066;28;45319;-71
2021/08/01 10:32:21;;;;;;;;;1.00;1.00;;;;;27.21;39.13;101120.66;4945915;28;45235;-71
2021/08/01 10:34:58;;;;;;;;;1.00;1.00;;;;;27.12;39.28;101098.66;4953529;28;46539;-71
2021/08/01 10:37:27;;;;;;;;;2.25;2.25;;;;;27.22;39.51;101113.47;4953628;28;45432;-71
2021/08/01 10:39:56;;;;;;;;;1.00;1.00;;;;;27.21;39.52;101117.16;4946547;28;45459;-71
2021/08/01 10:42:27;;;;;;;;;1.50;1.50;;;;;27.21;39.34;101118.00;4957781;28;45410;-71
2021/08/01 10:44:53;;;;;;;;;1.00;1.00;;;;;27.20;39.09;101119.00;4953851;28;47151;-72
2021/08/01 10:47:20;;;;;;;;;3.00;1.00;;;;;27.21;39.34;101115.31;4957744;28;45464;-72
2021/08/01 10:49:47;;;;;;;;;2.50;1.00;;;;;27.20;39.51;101111.00;4957417;28;45389;-72
2021/08/01 10:52:16;;;;;;;;;2.00;2.00;;;;;27.21;39.58;101114.50;4955063;28;45393;-72
2021/08/01 10:54:55;;;;;;;;;1.75;1.75;;;;;27.10;39.47;101097.22;4944730;28;45409;-71
2021/08/01 10:57:22;;;;;;;;;2.00;2.00;;;;;27.20;39.46;101111.00;4942214;28;45292;-71
2021/08/01 10:59:47;;;;;;;;;1.25;1.00;;;;;27.20;39.06;101120.84;4953511;28;45392;-71
2021/08/01 11:02:15;;;;;;;;;1.75;1.75;;;;;27.20;39.48;101124.34;4946719;28;45611;-71
2021/08/01 11:04:44;;;;;;;;;1.00;1.00;;;;;27.09;39.55;101099.06;4946290;28;47178;-71
2021/08/01 11:07:09;;;;;;;;;1.75;1.00;;;;;27.18;39.51;101121.06;4946066;28;45553;-71
2021/08/01 11:09:35;;;;;;;;;1.00;1.00;;;;;27.20;39.10;101120.84;4943844;28;45489;-71
2021/08/01 11:12:30;;;;;;;;;2.25;2.00;;;;;27.18;39.43;101124.56;4941855;28;45364;-72
2021/08/01 11:14:56;;;;;;;;;2.00;2.00;;;;;27.20;39.43;101120.84;4953237;28;46013;-72
2021/08/01 11:17:46;;;;;;;;;1.00;1.00;;;;;27.19;39.07;101120.06;4945685;28;45798;-71
2021/08/01 11:20:23;;;;;;;;;0.25;0.25;;;;;27.20;39.44;101126.19;4956338;28;45353;-71
2021/08/01 11:22:51;;;;;;;;;1.00;1.00;;;;;27.19;39.02;101122.72;4949526;28;45468;-72
2021/08/01 11:25:26;;;;;;;;;5.00;2.00;;;;;27.20;39.22;101124.34;4945827;28;46502;-71
2021/08/01 11:28:10;;;;;;;;;1.75;1.75;;;;;27.18;38.87;101124.56;4945298;28;45401;-72